时时彩平台代码出售,芦溪二中贴吧,望奎论坛,梨树驾校,安宁一中
辽阳吧 辽阳特产 辽阳新闻网 辽阳天气 辽阳百姓网
   

产品导航




















  
当前位置:时时彩平台代码出售

  时时彩平台代码出售他是无解的BUG,他在掀起革命,完完全全地改变这项运动。

  SBRD 090330Z 10005KT 0100 BCFG NSC 23/23 Q1010=

     2015年3月26日,中共中央办公厅印发了《省(自治区、直辖市)纪委书记、副书记提名考察办法(试行)》《中央纪委派驻纪检组组长、副组长提名考察办法(试行)》《中管企业纪委书记、副书记提名考察办法(试行)》,为推进党风廉政建设和反腐败斗争提供了组织和制度保障。

  

  

  比赛中,许昕用稳定证明了自己的绝对实力,面对9名队友取得8胜1负,5比4战胜马龙、5比3战胜张继科,唯一输的一场球也是以4比5遗憾告负。

  至5%。  王婧 摄

  据警方介绍,现年26岁的新郎朱某和24岁的新娘李某,均为河源市东源县人,夫妻俩刚领结婚证不久,欲于年前宴请亲友。 15年的光阴中,他更换了两只球队,超越了一位又一位历史前辈,最重要是他拿到了自己梦寐的总冠军。

  虽然法比亚诺和贾德森对中国足球,尤其中甲联赛并不了解,不过他们有信心迅速融入这个新环境,因为他们有着丰富的海外闯荡的经历,更重要的是还有堪称一流的巴西教练组,以及俱乐部会为他们提供场外帮助,解决所有后顾之忧。

  根据工信部数据,15年12月我国新能源汽车生产9.98  万辆,同比增长3  倍,环比增长38%,再创月度最高记录。 斯塔基、特纳和罗宾逊轮流进攻得手,步行者队继续保持两位数优势。

  

  结果显示,7个样品中有6个样品含有非法转基因成分。

  “你的羽毛球照片算不算全世界最好的嘛,至少世界一流嘛?”面对这个问题,刘瑾没有任何犹豫,“张吧张的,其他人可能还是有出彩的,但如果要说综合实力,肯定是哦,因为我懂羽毛球。 托马斯和约翰逊在第三节开始后各得3分,凯尔特人队把优势拉开到21分。

友情链接:
曾道人 香港正版挂牌之全篇 香港马会资料大全 香港马会资料 香港历史开奖记录 今期开码结果开奖 东方心经马报 四肖中特期期准 2017年香港全年资料 香港赛马会资料 118图库 王中王开奖结果 118图库彩图图库 118图库彩图 正版免费料大全 2017年香港全年资料 今晚二肖必中特 香港马会开奖结果直播 今晚开奖结果现场直播 今期东方心经马报 今晚开奖现场直播2017年 2017香港开奖现场直播 香港王中王网站 真正香港一码中特图 香港官方网免费资料 香港最准一肖一码 最准的特马网站 香港赛马会官方网 香港赛马会唯一官方网 手机看开奖结果 香港最快开奖结果 特码开奖结果查询 香港正版挂牌之全篇 香港金多宝开奖结果 香港马会 开奖直播 2017香港历史开奖记录 马会免费特供资料站


本站所有站内信息仅供娱乐参考,不作任何商业用途,不以营利为目的,专注分享快乐,欢迎收藏本站!
所有信息均来自:百度一下(辽阳大杂烩)